sensor_id;sensor_type;location;lat;lon;timestamp;temperature;humidity
15259;DHT22;34462;51.368;12.364;2023-05-10T00:01:41;11.20;99.90
15259;DHT22;34462;51.368;12.364;2023-05-10T00:04:09;11.20;99.90
15259;DHT22;34462;51.368;12.364;2023-05-10T00:06:37;11.20;99.90
15259;DHT22;34462;51.368;12.364;2023-05-10T00:09:05;11.20;99.90
15259;DHT22;34462;51.368;12.364;2023-05-10T00:11:35;11.20;99.90
15259;DHT22;34462;51.368;12.364;2023-05-10T00:14:03;11.10;99.90
15259;DHT22;34462;51.368;12.364;2023-05-10T00:16:31;11.10;99.90
15259;DHT22;34462;51.368;12.364;2023-05-10T00:19:00;11.10;99.90
15259;DHT22;34462;51.368;12.364;2023-05-10T00:21:28;11.20;99.90
15259;DHT22;34462;51.368;12.364;2023-05-10T00:23:56;11.10;99.90
15259;DHT22;34462;51.368;12.364;2023-05-10T00:26:24;11.10;99.90
15259;DHT22;34462;51.368;12.364;2023-05-10T00:28:54;11.00;99.90
15259;DHT22;34462;51.368;12.364;2023-05-10T00:31:23;11.10;99.90
15259;DHT22;34462;51.368;12.364;2023-05-10T00:33:51;10.90;99.90
15259;DHT22;34462;51.368;12.364;2023-05-10T00:36:19;11.00;99.90
15259;DHT22;34462;51.368;12.364;2023-05-10T00:38:47;11.00;99.90
15259;DHT22;34462;51.368;12.364;2023-05-10T00:41:15;11.00;99.90
15259;DHT22;34462;51.368;12.364;2023-05-10T00:43:44;11.00;99.90
15259;DHT22;34462;51.368;12.364;2023-05-10T00:46:14;11.00;99.90
15259;DHT22;34462;51.368;12.364;2023-05-10T00:48:44;11.10;99.90
15259;DHT22;34462;51.368;12.364;2023-05-10T00:51:13;11.10;99.90
15259;DHT22;34462;51.368;12.364;2023-05-10T00:53:41;11.20;99.90
15259;DHT22;34462;51.368;12.364;2023-05-10T00:56:11;11.10;99.90
15259;DHT22;34462;51.368;12.364;2023-05-10T00:58:40;11.10;99.90
15259;DHT22;34462;51.368;12.364;2023-05-10T01:01:09;11.10;99.90
15259;DHT22;34462;51.368;12.364;2023-05-10T01:03:40;11.10;99.90
15259;DHT22;34462;51.368;12.364;2023-05-10T01:06:08;11.00;99.90
15259;DHT22;34462;51.368;12.364;2023-05-10T01:08:37;11.00;99.90
15259;DHT22;34462;51.368;12.364;2023-05-10T01:11:06;11.10;99.90
15259;DHT22;34462;51.368;12.364;2023-05-10T01:13:36;11.00;99.90
15259;DHT22;34462;51.368;12.364;2023-05-10T01:16:06;11.00;99.90
15259;DHT22;34462;51.368;12.364;2023-05-10T01:18:37;11.00;99.90
15259;DHT22;34462;51.368;12.364;2023-05-10T01:21:17;11.00;99.90
15259;DHT22;34462;51.368;12.364;2023-05-10T01:24:19;10.90;99.90
15259;DHT22;34462;51.368;12.364;2023-05-10T01:27:32;10.90;99.90
15259;DHT22;34462;51.368;12.364;2023-05-10T01:33:47;10.90;99.90
15259;DHT22;34462;51.368;12.364;2023-05-10T01:36:24;10.80;99.90
15259;DHT22;34462;51.368;12.364;2023-05-10T01:39:01;10.80;99.90
15259;DHT22;34462;51.368;12.364;2023-05-10T01:41:41;10.80;99.90
15259;DHT22;34462;51.368;12.364;2023-05-10T01:44:20;10.80;99.90
15259;DHT22;34462;51.368;12.364;2023-05-10T01:47:01;10.80;99.90
15259;DHT22;34462;51.368;12.364;2023-05-10T01:49:40;10.70;99.90
15259;DHT22;34462;51.368;12.364;2023-05-10T01:52:15;10.70;99.90
15259;DHT22;34462;51.368;12.364;2023-05-10T01:54:52;10.80;99.90
15259;DHT22;34462;51.368;12.364;2023-05-10T01:57:26;10.70;99.90
15259;DHT22;34462;51.368;12.364;2023-05-10T01:59:59;10.70;99.90
15259;DHT22;34462;51.368;12.364;2023-05-10T02:02:34;10.70;99.90
15259;DHT22;34462;51.368;12.364;2023-05-10T02:05:07;10.70;99.90
15259;DHT22;34462;51.368;12.364;2023-05-10T02:07:37;10.70;99.90
15259;DHT22;34462;51.368;12.364;2023-05-10T02:10:08;10.70;99.90
15259;DHT22;34462;51.368;12.364;2023-05-10T02:12:41;10.70;99.90
15259;DHT22;34462;51.368;12.364;2023-05-10T02:15:12;10.60;99.90
15259;DHT22;34462;51.368;12.364;2023-05-10T02:17:43;10.60;99.90
15259;DHT22;34462;51.368;12.364;2023-05-10T02:20:16;10.60;99.90
15259;DHT22;34462;51.368;12.364;2023-05-10T02:22:48;10.70;99.90
15259;DHT22;34462;51.368;12.364;2023-05-10T02:25:19;10.60;99.90
15259;DHT22;34462;51.368;12.364;2023-05-10T02:27:50;10.60;99.90
15259;DHT22;34462;51.368;12.364;2023-05-10T02:30:22;10.60;99.90
15259;DHT22;34462;51.368;12.364;2023-05-10T02:32:52;10.60;99.90
15259;DHT22;34462;51.368;12.364;2023-05-10T02:35:23;10.60;99.90
15259;DHT22;34462;51.368;12.364;2023-05-10T02:37:54;10.60;99.90
15259;DHT22;34462;51.368;12.364;2023-05-10T02:40:26;10.60;99.90
15259;DHT22;34462;51.368;12.364;2023-05-10T02:42:57;10.50;99.90
15259;DHT22;34462;51.368;12.364;2023-05-10T02:45:30;10.40;99.90
15259;DHT22;34462;51.368;12.364;2023-05-10T02:47:59;10.40;99.90
15259;DHT22;34462;51.368;12.364;2023-05-10T02:50:30;10.40;99.90
15259;DHT22;34462;51.368;12.364;2023-05-10T02:53:03;10.40;99.90
15259;DHT22;34462;51.368;12.364;2023-05-10T02:55:40;10.40;99.90
15259;DHT22;34462;51.368;12.364;2023-05-10T02:58:08;10.30;99.90
15259;DHT22;34462;51.368;12.364;2023-05-10T03:00:37;10.30;99.90
15259;DHT22;34462;51.368;12.364;2023-05-10T03:03:05;10.30;99.90
15259;DHT22;34462;51.368;12.364;2023-05-10T03:05:35;10.30;99.90
15259;DHT22;34462;51.368;12.364;2023-05-10T03:08:03;10.30;99.90
15259;DHT22;34462;51.368;12.364;2023-05-10T03:10:35;10.30;99.90
15259;DHT22;34462;51.368;12.364;2023-05-10T03:13:16;10.30;99.90
15259;DHT22;34462;51.368;12.364;2023-05-10T03:15:59;10.20;99.90
15259;DHT22;34462;51.368;12.364;2023-05-10T03:18:42;10.30;99.90
15259;DHT22;34462;51.368;12.364;2023-05-10T03:21:13;10.30;99.90
15259;DHT22;34462;51.368;12.364;2023-05-10T03:23:51;10.30;99.90
15259;DHT22;34462;51.368;12.364;2023-05-10T03:26:27;10.20;99.90
15259;DHT22;34462;51.368;12.364;2023-05-10T03:28:57;10.20;99.90
15259;DHT22;34462;51.368;12.364;2023-05-10T03:31:26;10.30;99.90
15259;DHT22;34462;51.368;12.364;2023-05-10T03:33:55;10.30;99.90
15259;DHT22;34462;51.368;12.364;2023-05-10T03:36:24;10.30;99.90
15259;DHT22;34462;51.368;12.364;2023-05-10T03:38:52;10.30;99.90
15259;DHT22;34462;51.368;12.364;2023-05-10T03:41:21;10.30;99.90
15259;DHT22;34462;51.368;12.364;2023-05-10T03:43:49;10.40;99.90
15259;DHT22;34462;51.368;12.364;2023-05-10T03:46:17;10.40;99.90
15259;DHT22;34462;51.368;12.364;2023-05-10T03:48:45;10.40;99.90
15259;DHT22;34462;51.368;12.364;2023-05-10T03:51:14;10.50;99.90
15259;DHT22;34462;51.368;12.364;2023-05-10T03:53:43;10.50;99.90
15259;DHT22;34462;51.368;12.364;2023-05-10T03:56:11;10.50;99.90
15259;DHT22;34462;51.368;12.364;2023-05-10T03:58:40;10.50;99.90
15259;DHT22;34462;51.368;12.364;2023-05-10T04:01:08;10.60;99.90
15259;DHT22;34462;51.368;12.364;2023-05-10T04:03:36;10.70;99.90
15259;DHT22;34462;51.368;12.364;2023-05-10T04:06:05;10.80;99.90
15259;DHT22;34462;51.368;12.364;2023-05-10T04:08:35;10.90;99.90
15259;DHT22;34462;51.368;12.364;2023-05-10T04:11:09;11.00;99.90
15259;DHT22;34462;51.368;12.364;2023-05-10T04:13:38;11.10;99.90
15259;DHT22;34462;51.368;12.364;2023-05-10T04:16:06;11.10;99.90
15259;DHT22;34462;51.368;12.364;2023-05-10T04:18:34;11.20;99.90
15259;DHT22;34462;51.368;12.364;2023-05-10T04:21:03;11.20;99.90
15259;DHT22;34462;51.368;12.364;2023-05-10T04:23:31;11.30;99.90
15259;DHT22;34462;51.368;12.364;2023-05-10T04:26:00;11.30;99.90
15259;DHT22;34462;51.368;12.364;2023-05-10T04:28:30;11.40;99.90
15259;DHT22;34462;51.368;12.364;2023-05-10T04:31:02;11.40;99.90
15259;DHT22;34462;51.368;12.364;2023-05-10T04:33:31;11.40;99.90
15259;DHT22;34462;51.368;12.364;2023-05-10T04:36:00;11.50;99.90
15259;DHT22;34462;51.368;12.364;2023-05-10T04:38:29;11.60;99.90
15259;DHT22;34462;51.368;12.364;2023-05-10T04:41:04;11.70;99.90
15259;DHT22;34462;51.368;12.364;2023-05-10T04:43:35;11.80;99.90
15259;DHT22;34462;51.368;12.364;2023-05-10T04:46:04;11.90;99.90
15259;DHT22;34462;51.368;12.364;2023-05-10T04:48:33;12.00;99.90
15259;DHT22;34462;51.368;12.364;2023-05-10T04:51:02;12.10;99.90
15259;DHT22;34462;51.368;12.364;2023-05-10T04:53:31;12.30;99.90
15259;DHT22;34462;51.368;12.364;2023-05-10T04:55:59;12.50;99.90
15259;DHT22;34462;51.368;12.364;2023-05-10T04:58:27;13.40;99.90
15259;DHT22;34462;51.368;12.364;2023-05-10T05:01:03;14.70;99.90
15259;DHT22;34462;51.368;12.364;2023-05-10T05:03:32;15.50;99.90
15259;DHT22;34462;51.368;12.364;2023-05-10T05:06:01;16.60;99.90
15259;DHT22;34462;51.368;12.364;2023-05-10T05:08:29;17.10;99.90
15259;DHT22;34462;51.368;12.364;2023-05-10T05:10:58;17.60;99.90
15259;DHT22;34462;51.368;12.364;2023-05-10T05:13:26;17.80;99.90
15259;DHT22;34462;51.368;12.364;2023-05-10T05:15:56;18.00;99.90
15259;DHT22;34462;51.368;12.364;2023-05-10T05:18:24;17.80;99.90
15259;DHT22;34462;51.368;12.364;2023-05-10T05:20:53;17.60;99.90
15259;DHT22;34462;51.368;12.364;2023-05-10T05:23:21;17.40;99.90
15259;DHT22;34462;51.368;12.364;2023-05-10T05:25:51;17.10;99.90
15259;DHT22;34462;51.368;12.364;2023-05-10T05:28:20;17.10;99.90
15259;DHT22;34462;51.368;12.364;2023-05-10T05:30:48;16.90;99.90
15259;DHT22;34462;51.368;12.364;2023-05-10T05:33:18;17.00;99.90
15259;DHT22;34462;51.368;12.364;2023-05-10T05:35:46;17.00;99.90
15259;DHT22;34462;51.368;12.364;2023-05-10T05:38:17;16.90;99.90
15259;DHT22;34462;51.368;12.364;2023-05-10T05:40:45;16.90;99.90
15259;DHT22;34462;51.368;12.364;2023-05-10T05:43:13;16.90;99.90
15259;DHT22;34462;51.368;12.364;2023-05-10T05:45:42;16.90;99.90
15259;DHT22;34462;51.368;12.364;2023-05-10T05:48:10;17.00;99.90
15259;DHT22;34462;51.368;12.364;2023-05-10T05:50:39;17.10;99.90
15259;DHT22;34462;51.368;12.364;2023-05-10T05:53:08;17.10;99.90
15259;DHT22;34462;51.368;12.364;2023-05-10T05:55:36;17.20;99.90
15259;DHT22;34462;51.368;12.364;2023-05-10T05:58:05;17.20;99.90
15259;DHT22;34462;51.368;12.364;2023-05-10T06:00:33;17.00;99.90
15259;DHT22;34462;51.368;12.364;2023-05-10T06:03:01;16.70;99.90
15259;DHT22;34462;51.368;12.364;2023-05-10T06:05:30;16.50;99.90
15259;DHT22;34462;51.368;12.364;2023-05-10T06:08:01;16.30;99.90
15259;DHT22;34462;51.368;12.364;2023-05-10T06:10:29;16.00;99.90
15259;DHT22;34462;51.368;12.364;2023-05-10T06:12:57;15.90;99.90
15259;DHT22;34462;51.368;12.364;2023-05-10T06:15:25;15.90;99.90
15259;DHT22;34462;51.368;12.364;2023-05-10T06:17:54;15.80;99.90
15259;DHT22;34462;51.368;12.364;2023-05-10T06:20:22;15.70;99.90
15259;DHT22;34462;51.368;12.364;2023-05-10T06:22:50;15.70;99.90
15259;DHT22;34462;51.368;12.364;2023-05-10T06:25:20;15.70;99.90
15259;DHT22;34462;51.368;12.364;2023-05-10T06:27:48;15.70;99.90
15259;DHT22;34462;51.368;12.364;2023-05-10T06:30:19;15.70;99.90
15259;DHT22;34462;51.368;12.364;2023-05-10T06:32:49;15.70;99.90
15259;DHT22;34462;51.368;12.364;2023-05-10T06:35:18;15.70;99.90
15259;DHT22;34462;51.368;12.364;2023-05-10T06:37:46;15.80;99.90
15259;DHT22;34462;51.368;12.364;2023-05-10T06:40:15;15.90;99.90
15259;DHT22;34462;51.368;12.364;2023-05-10T06:42:46;16.10;99.90
15259;DHT22;34462;51.368;12.364;2023-05-10T06:45:14;16.40;99.90
15259;DHT22;34462;51.368;12.364;2023-05-10T06:47:44;16.60;99.90
15259;DHT22;34462;51.368;12.364;2023-05-10T06:50:12;17.00;99.90
15259;DHT22;34462;51.368;12.364;2023-05-10T06:52:40;17.40;99.90
15259;DHT22;34462;51.368;12.364;2023-05-10T06:55:10;17.70;99.90
15259;DHT22;34462;51.368;12.364;2023-05-10T06:57:38;18.20;99.90
15259;DHT22;34462;51.368;12.364;2023-05-10T07:00:08;18.40;99.90
15259;DHT22;34462;51.368;12.364;2023-05-10T07:02:37;18.60;99.90
15259;DHT22;34462;51.368;12.364;2023-05-10T07:05:05;18.60;99.90
15259;DHT22;34462;51.368;12.364;2023-05-10T07:07:34;18.50;99.90
15259;DHT22;34462;51.368;12.364;2023-05-10T07:10:02;18.30;99.90
15259;DHT22;34462;51.368;12.364;2023-05-10T07:12:31;18.30;99.90
15259;DHT22;34462;51.368;12.364;2023-05-10T07:14:59;18.10;99.90
15259;DHT22;34462;51.368;12.364;2023-05-10T07:17:29;17.90;99.90
15259;DHT22;34462;51.368;12.364;2023-05-10T07:19:57;17.80;99.90
15259;DHT22;34462;51.368;12.364;2023-05-10T07:22:25;17.70;99.90
15259;DHT22;34462;51.368;12.364;2023-05-10T07:24:54;17.70;99.90
15259;DHT22;34462;51.368;12.364;2023-05-10T07:27:22;17.60;99.90
15259;DHT22;34462;51.368;12.364;2023-05-10T07:29:50;17.60;99.90
15259;DHT22;34462;51.368;12.364;2023-05-10T07:32:19;17.60;99.90
15259;DHT22;34462;51.368;12.364;2023-05-10T07:34:48;17.80;99.90
15259;DHT22;34462;51.368;12.364;2023-05-10T07:37:16;18.00;99.90
15259;DHT22;34462;51.368;12.364;2023-05-10T07:39:45;18.10;99.90
15259;DHT22;34462;51.368;12.364;2023-05-10T07:42:13;18.20;99.90
15259;DHT22;34462;51.368;12.364;2023-05-10T07:44:41;18.40;99.90
15259;DHT22;34462;51.368;12.364;2023-05-10T07:47:09;18.60;99.90
15259;DHT22;34462;51.368;12.364;2023-05-10T07:49:38;18.90;99.90
15259;DHT22;34462;51.368;12.364;2023-05-10T07:52:07;19.10;99.90
15259;DHT22;34462;51.368;12.364;2023-05-10T07:54:36;19.00;99.90
15259;DHT22;34462;51.368;12.364;2023-05-10T07:57:04;19.00;99.90
15259;DHT22;34462;51.368;12.364;2023-05-10T07:59:32;19.00;99.90
15259;DHT22;34462;51.368;12.364;2023-05-10T08:02:01;19.00;99.90
15259;DHT22;34462;51.368;12.364;2023-05-10T08:04:29;19.10;99.90
15259;DHT22;34462;51.368;12.364;2023-05-10T08:06:57;19.20;99.90
15259;DHT22;34462;51.368;12.364;2023-05-10T08:09:27;19.20;99.90
15259;DHT22;34462;51.368;12.364;2023-05-10T08:11:55;18.90;99.90
15259;DHT22;34462;51.368;12.364;2023-05-10T08:14:23;18.90;99.90
15259;DHT22;34462;51.368;12.364;2023-05-10T08:16:51;18.80;99.90
15259;DHT22;34462;51.368;12.364;2023-05-10T08:19:19;18.60;99.90
15259;DHT22;34462;51.368;12.364;2023-05-10T08:21:48;18.70;99.90
15259;DHT22;34462;51.368;12.364;2023-05-10T08:24:16;18.60;99.90
15259;DHT22;34462;51.368;12.364;2023-05-10T08:26:45;18.60;99.90
15259;DHT22;34462;51.368;12.364;2023-05-10T08:29:14;18.80;99.90
15259;DHT22;34462;51.368;12.364;2023-05-10T08:31:42;18.90;99.90
15259;DHT22;34462;51.368;12.364;2023-05-10T08:34:12;18.60;99.90
15259;DHT22;34462;51.368;12.364;2023-05-10T08:36:40;18.50;99.90
15259;DHT22;34462;51.368;12.364;2023-05-10T08:39:08;18.30;99.90
15259;DHT22;34462;51.368;12.364;2023-05-10T08:42:02;18.30;99.90
15259;DHT22;34462;51.368;12.364;2023-05-10T08:44:32;18.30;99.90
15259;DHT22;34462;51.368;12.364;2023-05-10T08:47:05;18.30;99.90
15259;DHT22;34462;51.368;12.364;2023-05-10T08:49:34;18.40;99.90
15259;DHT22;34462;51.368;12.364;2023-05-10T08:52:05;18.50;99.90
15259;DHT22;34462;51.368;12.364;2023-05-10T08:54:36;18.30;99.90
15259;DHT22;34462;51.368;12.364;2023-05-10T08:57:07;18.10;99.90
15259;DHT22;34462;51.368;12.364;2023-05-10T08:59:35;18.10;99.90
15259;DHT22;34462;51.368;12.364;2023-05-10T09:02:06;17.80;99.90
15259;DHT22;34462;51.368;12.364;2023-05-10T09:04:38;17.70;99.90
15259;DHT22;34462;51.368;12.364;2023-05-10T09:07:06;17.60;99.90
15259;DHT22;34462;51.368;12.364;2023-05-10T09:09:35;17.70;99.90
15259;DHT22;34462;51.368;12.364;2023-05-10T09:12:05;17.60;99.90
15259;DHT22;34462;51.368;12.364;2023-05-10T09:14:38;17.40;99.90
15259;DHT22;34462;51.368;12.364;2023-05-10T09:17:07;17.10;99.90
15259;DHT22;34462;51.368;12.364;2023-05-10T09:19:35;16.90;99.90
15259;DHT22;34462;51.368;12.364;2023-05-10T09:22:04;16.80;99.90
15259;DHT22;34462;51.368;12.364;2023-05-10T09:24:32;16.50;99.90
15259;DHT22;34462;51.368;12.364;2023-05-10T09:27:01;16.40;99.90
15259;DHT22;34462;51.368;12.364;2023-05-10T09:29:41;16.20;99.90
15259;DHT22;34462;51.368;12.364;2023-05-10T09:32:10;15.90;99.90
15259;DHT22;34462;51.368;12.364;2023-05-10T09:34:39;15.90;99.90
15259;DHT22;34462;51.368;12.364;2023-05-10T09:37:08;15.80;99.90
15259;DHT22;34462;51.368;12.364;2023-05-10T09:39:37;15.60;99.90
15259;DHT22;34462;51.368;12.364;2023-05-10T09:42:09;15.50;99.90
15259;DHT22;34462;51.368;12.364;2023-05-10T09:44:37;15.30;99.90
15259;DHT22;34462;51.368;12.364;2023-05-10T09:47:10;15.10;99.90
15259;DHT22;34462;51.368;12.364;2023-05-10T09:49:38;15.00;99.90
15259;DHT22;34462;51.368;12.364;2023-05-10T09:52:07;14.90;99.90
15259;DHT22;34462;51.368;12.364;2023-05-10T09:54:38;14.80;99.90
15259;DHT22;34462;51.368;12.364;2023-05-10T09:57:20;14.70;99.90
15259;DHT22;34462;51.368;12.364;2023-05-10T09:59:50;14.80;99.90
15259;DHT22;34462;51.368;12.364;2023-05-10T10:02:20;14.80;99.90
15259;DHT22;34462;51.368;12.364;2023-05-10T10:04:55;14.80;99.90
15259;DHT22;34462;51.368;12.364;2023-05-10T10:07:24;15.00;99.90
15259;DHT22;34462;51.368;12.364;2023-05-10T10:09:53;15.10;99.90
15259;DHT22;34462;51.368;12.364;2023-05-10T10:12:21;15.10;99.90
15259;DHT22;34462;51.368;12.364;2023-05-10T10:14:51;15.10;99.90
15259;DHT22;34462;51.368;12.364;2023-05-10T10:17:19;15.20;99.90
15259;DHT22;34462;51.368;12.364;2023-05-10T10:19:49;15.20;99.90
15259;DHT22;34462;51.368;12.364;2023-05-10T10:22:17;15.20;99.90
15259;DHT22;34462;51.368;12.364;2023-05-10T10:24:45;15.30;99.90
15259;DHT22;34462;51.368;12.364;2023-05-10T10:27:21;15.40;99.90
15259;DHT22;34462;51.368;12.364;2023-05-10T10:30:01;15.40;99.90
15259;DHT22;34462;51.368;12.364;2023-05-10T10:32:47;15.50;99.90
15259;DHT22;34462;51.368;12.364;2023-05-10T10:35:39;15.50;99.90
15259;DHT22;34462;51.368;12.364;2023-05-10T10:38:08;15.50;99.90
15259;DHT22;34462;51.368;12.364;2023-05-10T10:40:36;15.50;99.90
15259;DHT22;34462;51.368;12.364;2023-05-10T10:43:25;15.50;99.90
15259;DHT22;34462;51.368;12.364;2023-05-10T10:46:17;15.50;99.90
15259;DHT22;34462;51.368;12.364;2023-05-10T10:48:50;15.50;99.90
15259;DHT22;34462;51.368;12.364;2023-05-10T10:51:37;15.60;99.90
15259;DHT22;34462;51.368;12.364;2023-05-10T10:54:09;15.80;99.90
15259;DHT22;34462;51.368;12.364;2023-05-10T10:56:37;15.90;99.90
15259;DHT22;34462;51.368;12.364;2023-05-10T10:59:06;15.90;99.90
15259;DHT22;34462;51.368;12.364;2023-05-10T11:01:36;15.90;99.90
15259;DHT22;34462;51.368;12.364;2023-05-10T11:04:17;15.70;99.90
15259;DHT22;34462;51.368;12.364;2023-05-10T11:06:47;15.70;99.90
15259;DHT22;34462;51.368;12.364;2023-05-10T11:09:15;15.70;99.90
15259;DHT22;34462;51.368;12.364;2023-05-10T11:11:50;15.60;99.90
15259;DHT22;34462;51.368;12.364;2023-05-10T11:14:22;15.60;99.90
15259;DHT22;34462;51.368;12.364;2023-05-10T11:16:52;15.60;99.90
15259;DHT22;34462;51.368;12.364;2023-05-10T11:19:20;15.60;99.90
15259;DHT22;34462;51.368;12.364;2023-05-10T11:21:49;15.50;99.90
15259;DHT22;34462;51.368;12.364;2023-05-10T11:24:21;15.60;99.90
15259;DHT22;34462;51.368;12.364;2023-05-10T11:26:50;15.60;99.90
15259;DHT22;34462;51.368;12.364;2023-05-10T11:29:19;15.70;99.90
15259;DHT22;34462;51.368;12.364;2023-05-10T11:31:48;15.60;99.90
15259;DHT22;34462;51.368;12.364;2023-05-10T11:34:25;15.70;99.90
15259;DHT22;34462;51.368;12.364;2023-05-10T11:36:56;15.70;99.90
15259;DHT22;34462;51.368;12.364;2023-05-10T11:39:29;15.70;99.90
15259;DHT22;34462;51.368;12.364;2023-05-10T11:41:58;15.80;99.90
15259;DHT22;34462;51.368;12.364;2023-05-10T11:44:29;15.80;99.90
15259;DHT22;34462;51.368;12.364;2023-05-10T11:46:59;16.00;99.90
15259;DHT22;34462;51.368;12.364;2023-05-10T11:49:29;16.20;99.90
15259;DHT22;34462;51.368;12.364;2023-05-10T11:52:04;16.40;99.90
15259;DHT22;34462;51.368;12.364;2023-05-10T11:54:33;16.60;99.90
15259;DHT22;34462;51.368;12.364;2023-05-10T11:57:02;16.70;99.90
15259;DHT22;34462;51.368;12.364;2023-05-10T11:59:30;16.90;99.90
15259;DHT22;34462;51.368;12.364;2023-05-10T12:01:58;16.90;99.90
15259;DHT22;34462;51.368;12.364;2023-05-10T12:04:28;16.90;99.90
15259;DHT22;34462;51.368;12.364;2023-05-10T12:06:57;17.00;99.90
15259;DHT22;34462;51.368;12.364;2023-05-10T12:09:25;16.80;99.90
15259;DHT22;34462;51.368;12.364;2023-05-10T12:11:56;16.70;99.90
15259;DHT22;34462;51.368;12.364;2023-05-10T12:14:24;16.60;99.90
15259;DHT22;34462;51.368;12.364;2023-05-10T12:16:52;16.60;99.90
15259;DHT22;34462;51.368;12.364;2023-05-10T12:19:21;16.60;99.90
15259;DHT22;34462;51.368;12.364;2023-05-10T12:21:50;16.70;99.90
15259;DHT22;34462;51.368;12.364;2023-05-10T12:24:18;16.80;99.90
15259;DHT22;34462;51.368;12.364;2023-05-10T12:26:48;16.90;99.90
15259;DHT22;34462;51.368;12.364;2023-05-10T12:29:17;17.00;99.90
15259;DHT22;34462;51.368;12.364;2023-05-10T12:31:53;17.10;99.90
15259;DHT22;34462;51.368;12.364;2023-05-10T12:34:24;17.10;99.90
15259;DHT22;34462;51.368;12.364;2023-05-10T12:36:55;17.10;99.90
15259;DHT22;34462;51.368;12.364;2023-05-10T12:39:23;17.10;99.90
15259;DHT22;34462;51.368;12.364;2023-05-10T12:41:52;17.10;99.90
15259;DHT22;34462;51.368;12.364;2023-05-10T12:44:20;17.20;99.90
15259;DHT22;34462;51.368;12.364;2023-05-10T12:46:48;17.20;99.90
15259;DHT22;34462;51.368;12.364;2023-05-10T12:49:17;17.30;99.90
15259;DHT22;34462;51.368;12.364;2023-05-10T12:51:46;17.30;99.90
15259;DHT22;34462;51.368;12.364;2023-05-10T12:54:15;17.30;99.90
15259;DHT22;34462;51.368;12.364;2023-05-10T12:56:43;17.40;99.90
15259;DHT22;34462;51.368;12.364;2023-05-10T12:59:12;17.40;99.90
15259;DHT22;34462;51.368;12.364;2023-05-10T13:01:40;17.50;99.90
15259;DHT22;34462;51.368;12.364;2023-05-10T13:04:08;17.70;99.90
15259;DHT22;34462;51.368;12.364;2023-05-10T13:06:36;17.70;99.90
15259;DHT22;34462;51.368;12.364;2023-05-10T13:09:04;17.60;99.90
15259;DHT22;34462;51.368;12.364;2023-05-10T13:11:34;17.60;99.90
15259;DHT22;34462;51.368;12.364;2023-05-10T13:14:03;17.70;99.90
15259;DHT22;34462;51.368;12.364;2023-05-10T13:16:31;17.70;99.90
15259;DHT22;34462;51.368;12.364;2023-05-10T13:18:59;17.80;99.90
15259;DHT22;34462;51.368;12.364;2023-05-10T13:21:28;17.80;99.90
15259;DHT22;34462;51.368;12.364;2023-05-10T13:23:56;17.80;99.90
15259;DHT22;34462;51.368;12.364;2023-05-10T13:26:24;17.90;99.90
15259;DHT22;34462;51.368;12.364;2023-05-10T13:28:54;17.90;99.90
15259;DHT22;34462;51.368;12.364;2023-05-10T13:31:23;17.80;99.90
15259;DHT22;34462;51.368;12.364;2023-05-10T13:33:51;17.70;99.90
15259;DHT22;34462;51.368;12.364;2023-05-10T13:36:19;17.60;99.90
15259;DHT22;34462;51.368;12.364;2023-05-10T13:38:47;17.70;99.90
15259;DHT22;34462;51.368;12.364;2023-05-10T13:41:16;17.60;99.90
15259;DHT22;34462;51.368;12.364;2023-05-10T13:43:44;17.50;99.90
15259;DHT22;34462;51.368;12.364;2023-05-10T13:46:13;17.60;99.90
15259;DHT22;34462;51.368;12.364;2023-05-10T13:48:42;17.70;99.90
15259;DHT22;34462;51.368;12.364;2023-05-10T13:51:10;17.80;99.90
15259;DHT22;34462;51.368;12.364;2023-05-10T13:53:39;17.90;99.90
15259;DHT22;34462;51.368;12.364;2023-05-10T13:56:08;17.90;99.90
15259;DHT22;34462;51.368;12.364;2023-05-10T13:58:36;17.90;99.90
15259;DHT22;34462;51.368;12.364;2023-05-10T14:01:04;17.80;99.90
15259;DHT22;34462;51.368;12.364;2023-05-10T14:03:33;17.60;99.90
15259;DHT22;34462;51.368;12.364;2023-05-10T14:06:02;17.50;99.90
15259;DHT22;34462;51.368;12.364;2023-05-10T14:08:30;17.40;99.90
15259;DHT22;34462;51.368;12.364;2023-05-10T14:10:58;17.30;99.90
15259;DHT22;34462;51.368;12.364;2023-05-10T14:13:26;17.10;99.90
15259;DHT22;34462;51.368;12.364;2023-05-10T14:15:55;17.00;99.90
15259;DHT22;34462;51.368;12.364;2023-05-10T14:18:23;16.70;99.90
15259;DHT22;34462;51.368;12.364;2023-05-10T14:20:53;16.50;99.90
15259;DHT22;34462;51.368;12.364;2023-05-10T14:23:22;16.20;99.90
15259;DHT22;34462;51.368;12.364;2023-05-10T14:25:52;16.00;99.90
15259;DHT22;34462;51.368;12.364;2023-05-10T14:28:20;15.70;99.90
15259;DHT22;34462;51.368;12.364;2023-05-10T14:30:50;15.60;99.90
15259;DHT22;34462;51.368;12.364;2023-05-10T14:33:18;15.50;99.90
15259;DHT22;34462;51.368;12.364;2023-05-10T14:35:47;15.50;99.90
15259;DHT22;34462;51.368;12.364;2023-05-10T14:38:17;15.30;99.90
15259;DHT22;34462;51.368;12.364;2023-05-10T14:40:45;15.40;99.90
15259;DHT22;34462;51.368;12.364;2023-05-10T14:43:13;15.50;99.90
15259;DHT22;34462;51.368;12.364;2023-05-10T14:45:41;15.50;99.90
15259;DHT22;34462;51.368;12.364;2023-05-10T14:48:10;15.60;99.90
15259;DHT22;34462;51.368;12.364;2023-05-10T14:50:42;15.70;99.90
15259;DHT22;34462;51.368;12.364;2023-05-10T14:53:10;15.70;99.90
15259;DHT22;34462;51.368;12.364;2023-05-10T14:55:39;15.80;99.90
15259;DHT22;34462;51.368;12.364;2023-05-10T14:58:08;15.90;99.90
15259;DHT22;34462;51.368;12.364;2023-05-10T15:00:36;16.00;99.90
15259;DHT22;34462;51.368;12.364;2023-05-10T15:03:05;16.10;99.90
15259;DHT22;34462;51.368;12.364;2023-05-10T15:05:33;16.10;99.90
15259;DHT22;34462;51.368;12.364;2023-05-10T15:08:04;16.10;99.90
15259;DHT22;34462;51.368;12.364;2023-05-10T15:10:32;16.00;99.90
15259;DHT22;34462;51.368;12.364;2023-05-10T15:13:03;16.00;99.90
15259;DHT22;34462;51.368;12.364;2023-05-10T15:15:31;16.10;99.90
15259;DHT22;34462;51.368;12.364;2023-05-10T15:18:00;16.10;99.90
15259;DHT22;34462;51.368;12.364;2023-05-10T15:20:28;16.00;99.90
15259;DHT22;34462;51.368;12.364;2023-05-10T15:22:56;16.00;99.90
15259;DHT22;34462;51.368;12.364;2023-05-10T15:25:24;15.80;99.90
15259;DHT22;34462;51.368;12.364;2023-05-10T15:27:52;15.80;99.90
15259;DHT22;34462;51.368;12.364;2023-05-10T15:30:22;15.60;99.90
15259;DHT22;34462;51.368;12.364;2023-05-10T15:32:50;15.40;99.90
15259;DHT22;34462;51.368;12.364;2023-05-10T15:35:19;15.30;99.90
15259;DHT22;34462;51.368;12.364;2023-05-10T15:37:47;15.00;99.90